Time;durP1;ratioP1;P1;durP2;ratioP2;P2;SDS_P1;SDS_P2;PMS_P1;PMS_P2;Temp;Humidity;BMP_temperature;BMP_pressure;BME280_temperature;BME280_humidity;BME280_pressure;Samples;Min_cycle;Max_cycle;Signal;HPM_P1;HPM_P2
2023/05/02 00:01:51;;;;;;;6.35;4.93;;;;;;;16.25;62.13;101958.47;5027993;28;20124;-48
2023/05/02 00:04:17;;;;;;;4.72;4.15;;;;;;;16.26;62.00;101964.72;5027262;28;20045;-48
2023/05/02 00:06:45;;;;;;;5.70;4.57;;;;;;;16.25;62.01;101963.84;5027458;28;20032;-48
2023/05/02 00:09:11;;;;;;;5.32;4.07;;;;;;;16.24;61.95;101972.91;5027443;28;20084;-48
2023/05/02 00:11:36;;;;;;;5.93;4.15;;;;;;;16.25;62.08;101973.75;5027233;28;20034;-51
2023/05/02 00:14:01;;;;;;;5.85;3.80;;;;;;;16.23;61.83;101972.03;5027677;28;20046;-46
2023/05/02 00:16:27;;;;;;;5.35;4.30;;;;;;;16.25;62.07;101987.19;5026716;28;20041;-47
2023/05/02 00:18:52;;;;;;;5.55;4.60;;;;;;;16.24;62.28;101983.66;5027448;28;20030;-47
2023/05/02 00:21:17;;;;;;;7.57;4.63;;;;;;;16.24;62.13;101983.66;5028015;28;20064;-49
2023/05/02 00:23:43;;;;;;;5.05;3.95;;;;;;;16.22;62.01;101988.25;5027198;28;20037;-48
2023/05/02 00:26:08;;;;;;;6.22;4.68;;;;;;;16.22;61.93;101989.13;5026982;28;20387;-47
2023/05/02 00:28:34;;;;;;;6.82;4.07;;;;;;;16.22;61.97;101990.94;5027084;28;20038;-50
2023/05/02 00:30:59;;;;;;;5.80;4.82;;;;;;;16.21;62.02;101994.59;5027006;28;20072;-47
2023/05/02 00:33:25;;;;;;;6.65;4.90;;;;;;;16.21;61.97;101989.22;5027726;28;20133;-46
2023/05/02 00:35:51;;;;;;;5.05;4.50;;;;;;;16.21;62.02;101992.75;5026829;28;20455;-48
2023/05/02 00:38:16;;;;;;;5.40;4.13;;;;;;;16.20;61.88;101993.75;5027720;28;20108;-47
2023/05/02 00:40:46;;;;;;;5.68;4.55;;;;;;;16.21;62.11;102000.81;5025204;28;20428;-47
2023/05/02 00:43:12;;;;;;;5.22;4.13;;;;;;;16.21;61.91;102005.34;5030403;28;20441;-48
2023/05/02 00:45:39;;;;;;;6.05;4.18;;;;;;;16.20;61.99;101995.56;5027843;28;20064;-51
2023/05/02 00:48:07;;;;;;;5.97;4.22;;;;;;;16.19;62.17;101999.22;5027109;28;20034;-48
2023/05/02 00:50:34;;;;;;;4.78;4.07;;;;;;;16.19;62.17;102001.91;5027469;28;20084;-47
2023/05/02 00:53:02;;;;;;;6.05;4.40;;;;;;;16.19;61.77;101997.38;5026371;28;20494;-47
2023/05/02 00:55:27;;;;;;;5.97;4.45;;;;;;;16.19;61.83;102005.44;5026982;28;20033;-48
2023/05/02 00:57:53;;;;;;;5.90;4.80;;;;;;;16.19;61.88;102008.13;5027253;28;20494;-49
2023/05/02 01:00:19;;;;;;;6.43;4.78;;;;;;;16.19;61.75;102007.28;5026568;28;20045;-47
2023/05/02 01:03:04;;;;;;;5.82;4.22;;;;;;;16.18;61.92;102005.53;5026897;28;20033;-49
2023/05/02 01:05:40;;;;;;;5.50;3.95;;;;;;;16.17;61.95;102001.16;5026317;28;20856;-49
2023/05/02 01:08:47;;;;;;;5.00;4.22;;;;;;;16.19;61.88;102000.06;5021128;28;20026;-48
2023/05/02 01:11:28;;;;;;;5.90;4.38;;;;;;;16.18;61.72;102002.88;4995850;28;20045;-47
2023/05/02 01:13:56;;;;;;;5.17;4.10;;;;;;;16.17;61.99;102010.06;5026559;28;20389;-47
2023/05/02 01:16:23;;;;;;;6.03;4.20;;;;;;;16.16;61.83;102010.16;5025972;28;20025;-49
2023/05/02 01:18:49;;;;;;;6.18;3.80;;;;;;;16.15;61.61;101997.72;5026739;28;20120;-49
2023/05/02 01:21:15;;;;;;;4.53;3.53;;;;;;;16.15;61.87;102005.78;5025702;28;20116;-48
2023/05/02 01:24:03;;;;;;;5.35;3.97;;;;;;;16.13;61.90;102005.88;5026395;28;20524;-49
2023/05/02 01:26:40;;;;;;;4.25;3.80;;;;;;;16.14;61.68;101996.84;5028429;28;20924;-48
2023/05/02 01:29:07;;;;;;;5.75;3.72;;;;;;;16.15;61.89;101995.03;5026192;28;20025;-49
2023/05/02 01:31:41;;;;;;;4.57;3.50;;;;;;;16.15;61.75;102000.41;5026268;28;20040;-47
2023/05/02 01:34:10;;;;;;;4.80;3.40;;;;;;;16.12;61.58;101996.09;5025790;28;20037;-50
2023/05/02 01:36:45;;;;;;;5.25;4.13;;;;;;;16.12;61.85;101996.09;5026224;28;20037;-47
2023/05/02 01:39:15;;;;;;;4.72;3.83;;;;;;;16.13;61.54;102005.03;5026422;28;20484;-48
2023/05/02 01:41:42;;;;;;;3.95;3.20;;;;;;;16.12;61.78;102005.97;5025573;28;20472;-50
2023/05/02 01:44:09;;;;;;;5.15;3.65;;;;;;;16.12;61.63;102005.97;5026132;28;20079;-48
2023/05/02 01:46:38;;;;;;;4.22;3.60;;;;;;;16.12;61.45;102005.97;5004263;28;20037;-48
2023/05/02 01:49:06;;;;;;;4.88;3.85;;;;;;;16.13;61.53;102015.78;5026777;28;20116;-47
2023/05/02 01:51:34;;;;;;;4.60;4.07;;;;;;;16.11;61.58;102015.03;5015626;28;20033;-46
2023/05/02 01:54:04;;;;;;;4.80;3.33;;;;;;;16.11;61.76;102017.72;5026391;28;20040;-48
2023/05/02 01:56:34;;;;;;;4.13;3.50;;;;;;;16.10;61.44;102016.81;5024023;28;20044;-48
2023/05/02 01:59:01;;;;;;;3.45;3.15;;;;;;;16.11;61.76;102025.78;5025919;28;20033;-49
2023/05/02 02:01:29;;;;;;;4.00;3.60;;;;;;;16.10;61.60;102018.66;5026589;28;20033;-48
2023/05/02 02:03:56;;;;;;;3.70;3.40;;;;;;;16.10;61.71;102026.72;5025788;28;20078;-48
2023/05/02 02:06:22;;;;;;;3.38;3.03;;;;;;;16.10;61.46;102030.25;5026121;28;20029;-49
2023/05/02 02:08:48;;;;;;;3.30;2.83;;;;;;;16.09;61.70;102028.56;5025366;28;20040;-49
2023/05/02 02:11:17;;;;;;;4.82;3.40;;;;;;;16.09;61.81;102033.94;5026165;28;20048;-48
2023/05/02 02:13:49;;;;;;;3.47;3.17;;;;;;;16.09;61.68;102044.69;5026237;28;20044;-48
2023/05/02 02:16:21;;;;;;;4.05;3.08;;;;;;;16.08;61.72;102042.94;5025364;28;20021;-48
2023/05/02 02:18:47;;;;;;;3.40;3.08;;;;;;;16.09;61.71;102050.06;5026373;28;20391;-48
2023/05/02 02:21:17;;;;;;;6.45;3.53;;;;;;;16.09;61.59;102043.78;5025203;28;20025;-48
2023/05/02 02:23:47;;;;;;;5.50;3.50;;;;;;;16.08;61.55;102044.78;5025803;28;20120;-47
2023/05/02 02:26:13;;;;;;;4.60;3.50;;;;;;;16.08;61.47;102052.84;5024778;28;20022;-46
2023/05/02 02:28:39;;;;;;;4.25;3.40;;;;;;;16.08;61.73;102052.84;5025937;28;20042;-47
2023/05/02 02:31:04;;;;;;;5.18;3.10;;;;;;;16.08;61.52;102055.53;5025531;28;20121;-48
2023/05/02 02:33:30;;;;;;;4.15;3.25;;;;;;;16.07;61.62;102051.09;5025246;28;20037;-48
2023/05/02 02:36:10;;;;;;;3.38;3.08;;;;;;;16.08;61.58;102063.59;5025932;28;20412;-48
2023/05/02 02:38:47;;;;;;;4.45;3.30;;;;;;;16.08;61.47;102058.22;5028189;28;20101;-47
2023/05/02 02:41:19;;;;;;;3.33;3.00;;;;;;;16.07;61.75;102057.34;5031810;28;20037;-51
2023/05/02 02:43:58;;;;;;;4.38;3.20;;;;;;;16.07;61.54;102059.16;5029704;28;20034;-48
2023/05/02 02:46:47;;;;;;;3.42;3.10;;;;;;;16.07;61.39;102056.47;5028908;28;20109;-49
2023/05/02 02:49:46;;;;;;;3.78;3.20;;;;;;;16.08;61.69;102068.97;5026808;28;20021;-50
2023/05/02 02:52:26;;;;;;;4.20;3.65;;;;;;;16.06;61.44;102065.50;5032360;28;20028;-48
2023/05/02 02:54:59;;;;;;;4.13;3.08;;;;;;;16.04;61.31;102057.56;5029683;28;20490;-49
2023/05/02 02:57:39;;;;;;;4.78;3.90;;;;;;;16.06;61.50;102066.38;5028535;28;20149;-48
2023/05/02 03:00:16;;;;;;;4.60;3.42;;;;;;;16.05;61.40;102067.34;5030229;28;20113;-48
2023/05/02 03:02:45;;;;;;;3.95;3.50;;;;;;;16.02;61.55;102068.41;5028805;28;20040;-47
2023/05/02 03:05:11;;;;;;;3.75;3.22;;;;;;;16.03;61.36;102072.81;5029227;28;20033;-48
2023/05/02 03:07:37;;;;;;;3.83;3.33;;;;;;;16.03;61.42;102086.25;5029539;28;20387;-49
2023/05/02 03:10:04;;;;;;;3.90;3.20;;;;;;;16.02;61.58;102083.66;5028494;28;20033;-47
2023/05/02 03:12:29;;;;;;;4.53;3.45;;;;;;;16.02;61.26;102081.81;5029159;28;20033;-47
2023/05/02 03:15:20;;;;;;;5.20;3.30;;;;;;;16.01;61.51;102088.19;5027876;28;20107;-47
2023/05/02 03:17:45;;;;;;;3.75;3.35;;;;;;;16.02;61.31;102092.56;5011700;28;20500;-48
2023/05/02 03:20:11;;;;;;;3.78;3.38;;;;;;;16.01;61.57;102088.19;5029181;28;20081;-47
2023/05/02 03:22:36;;;;;;;3.60;3.30;;;;;;;16.01;61.46;102095.34;5028746;28;20037;-48
2023/05/02 03:25:02;;;;;;;3.60;3.30;;;;;;;16.00;61.59;102094.50;5028211;28;20117;-46
2023/05/02 03:27:28;;;;;;;5.68;3.50;;;;;;;16.00;61.47;102099.88;5023938;28;20037;-47
2023/05/02 03:29:53;;;;;;;3.63;3.08;;;;;;;16.01;61.50;102106.09;5028964;28;20097;-47
2023/05/02 03:32:18;;;;;;;4.68;3.60;;;;;;;15.99;61.58;102103.53;5028231;28;20101;-50
2023/05/02 03:34:44;;;;;;;3.75;3.42;;;;;;;16.00;61.92;102107.94;5029188;28;20030;-47
2023/05/02 03:37:09;;;;;;;4.38;3.38;;;;;;;16.00;61.62;102117.81;5028254;28;20077;-46
2023/05/02 03:39:34;;;;;;;3.80;3.50;;;;;;;15.99;61.68;102114.28;5027586;28;20096;-47
2023/05/02 03:42:00;;;;;;;3.90;3.47;;;;;;;16.00;61.45;102120.50;5027581;28;20077;-47
2023/05/02 03:44:26;;;;;;;5.20;2.97;;;;;;;15.99;61.24;102113.41;5028063;28;20060;-49
2023/05/02 03:46:51;;;;;;;6.32;3.40;;;;;;;15.98;61.38;102112.56;5028717;28;20447;-46
2023/05/02 03:49:18;;;;;;;3.58;3.28;;;;;;;15.99;61.63;102124.16;5027464;28;20033;-49
2023/05/02 03:51:44;;;;;;;3.90;3.47;;;;;;;15.99;61.68;102125.03;5018815;28;20110;-49
2023/05/02 03:54:09;;;;;;;3.50;3.20;;;;;;;15.98;61.53;102115.25;5027432;28;20033;-48
2023/05/02 03:56:35;;;;;;;3.85;2.90;;;;;;;15.98;61.49;102125.97;5026908;28;20029;-49
2023/05/02 03:59:00;;;;;;;3.05;2.75;;;;;;;15.99;61.41;102134.91;5028056;28;20033;-47
2023/05/02 04:01:26;;;;;;;3.13;2.70;;;;;;;15.97;61.64;102140.41;5027327;28;20558;-48
2023/05/02 04:03:52;;;;;;;2.72;2.50;;;;;;;15.97;61.79;102145.78;5028038;28;20025;-48
2023/05/02 04:06:17;;;;;;;3.40;2.55;;;;;;;15.97;61.42;102143.09;5009615;28;20013;-48
2023/05/02 04:08:42;;;;;;;3.72;2.80;;;;;;;15.97;61.42;102151.13;5028057;28;20033;-49
2023/05/02 04:11:08;;;;;;;3.20;2.90;;;;;;;15.98;61.28;102152.00;5010514;28;20033;-46
2023/05/02 04:13:33;;;;;;;4.10;3.08;;;;;;;15.97;61.42;102145.78;5027111;28;20037;-49
2023/05/02 04:15:58;;;;;;;3.40;2.78;;;;;;;15.97;61.35;102155.63;5027566;28;20501;-48
2023/05/02 04:18:24;;;;;;;2.55;2.35;;;;;;;15.97;61.49;102153.81;5026957;28;20434;-50
2023/05/02 04:20:49;;;;;;;3.17;2.88;;;;;;;15.96;61.58;102162.84;5027408;28;20041;-49
2023/05/02 04:23:16;;;;;;;3.40;2.40;;;;;;;15.95;61.36;102171.84;5028424;28;20035;-46
2023/05/02 04:25:50;;;;;;;3.95;2.67;;;;;;;15.96;61.81;102175.41;5027077;28;20048;-47
2023/05/02 04:28:15;;;;;;;3.42;2.28;;;;;;;15.95;61.36;102173.66;5028374;28;20091;-48
2023/05/02 04:30:41;;;;;;;3.38;2.20;;;;;;;15.95;61.36;102185.28;5026930;28;20041;-46
2023/05/02 04:33:06;;;;;;;3.00;2.10;;;;;;;15.96;61.23;102192.38;5027283;28;20040;-47
2023/05/02 04:35:31;;;;;;;3.25;2.45;;;;;;;15.96;61.55;102200.44;5027589;28;20033;-47
2023/05/02 04:37:57;;;;;;;4.45;2.40;;;;;;;15.95;61.30;102198.69;5026733;28;20033;-50
2023/05/02 04:40:22;;;;;;;3.15;2.10;;;;;;;15.95;61.12;102206.75;5026681;28;20033;-49
2023/05/02 04:42:47;;;;;;;2.28;2.00;;;;;;;15.95;61.24;102212.13;5026985;28;20033;-49
2023/05/02 04:45:13;;;;;;;4.22;2.10;;;;;;;15.95;61.22;102208.59;5027344;28;20033;-48
2023/05/02 04:47:38;;;;;;;4.65;2.60;;;;;;;15.96;61.46;102205.81;5030338;28;20029;-48
2023/05/02 04:50:04;;;;;;;2.67;2.20;;;;;;;15.94;61.12;102218.50;5026795;28;20391;-49
2023/05/02 04:52:30;;;;;;;3.80;2.00;;;;;;;15.94;61.48;102221.16;5028478;28;20400;-49
2023/05/02 04:54:56;;;;;;;2.47;2.17;;;;;;;15.94;61.49;102221.16;5031335;28;20033;-49
2023/05/02 04:57:21;;;;;;;3.13;2.20;;;;;;;15.95;61.44;102227.41;5009270;28;20102;-49
2023/05/02 04:59:46;;;;;;;2.08;1.88;;;;;;;15.95;61.96;102230.09;5026948;28;20552;-47
2023/05/02 05:02:12;;;;;;;3.05;2.30;;;;;;;15.93;61.19;102227.50;5026417;28;20422;-47
2023/05/02 05:04:37;;;;;;;2.97;1.80;;;;;;;15.94;61.31;102234.59;5027237;28;20032;-48
2023/05/02 05:07:03;;;;;;;1.85;1.60;;;;;;;15.93;61.26;102232.88;5026231;28;20390;-48
2023/05/02 05:09:28;;;;;;;2.13;1.90;;;;;;;15.94;61.20;102239.13;5026605;28;20094;-47
2023/05/02 05:11:54;;;;;;;2.95;2.10;;;;;;;15.94;60.97;102245.34;5027363;28;20041;-46
2023/05/02 05:14:19;;;;;;;3.25;2.08;;;;;;;15.94;60.98;102245.34;5025980;28;20140;-49
2023/05/02 05:16:45;;;;;;;2.13;1.92;;;;;;;15.94;61.15;102249.88;5027097;28;20534;-48
2023/05/02 05:19:10;;;;;;;2.08;1.88;;;;;;;15.93;61.06;102254.34;5026401;28;20128;-47
2023/05/02 05:21:35;;;;;;;2.92;2.10;;;;;;;15.92;61.17;102252.66;5026639;28;20025;-49
2023/05/02 05:24:01;;;;;;;2.03;1.88;;;;;;;15.94;61.03;102260.63;5027202;28;20037;-50
2023/05/02 05:26:26;;;;;;;2.67;1.80;;;;;;;15.93;61.23;102257.03;5026311;28;20033;-48
2023/05/02 05:28:54;;;;;;;2.22;1.77;;;;;;;15.94;60.92;102268.66;5026383;28;20033;-47
2023/05/02 05:31:20;;;;;;;2.88;1.65;;;;;;;15.93;61.18;102267.78;5025613;28;20040;-49
2023/05/02 05:33:46;;;;;;;2.05;1.85;;;;;;;15.94;61.01;102269.53;5026882;28;20390;-48
2023/05/02 05:36:16;;;;;;;1.95;1.58;;;;;;;15.94;61.12;102268.66;5026684;28;20112;-48
2023/05/02 05:38:41;;;;;;;2.47;2.03;;;;;;;15.92;60.94;102279.50;5026111;28;20057;-47
2023/05/02 05:41:07;;;;;;;2.22;1.65;;;;;;;15.93;60.93;102277.66;5025771;28;20071;-46
2023/05/02 05:43:32;;;;;;;2.10;1.90;;;;;;;15.94;61.52;102282.09;5025550;28;20029;-46
2023/05/02 05:45:58;;;;;;;2.42;2.13;;;;;;;15.92;60.83;102284.88;5025993;28;20036;-48
2023/05/02 05:48:23;;;;;;;3.33;1.90;;;;;;;15.92;61.43;102287.56;5026885;28;20196;-47
2023/05/02 05:50:50;;;;;;;2.00;1.80;;;;;;;15.93;61.12;102281.22;5026766;28;20037;-47
2023/05/02 05:53:16;;;;;;;2.63;1.77;;;;;;;15.93;61.47;102281.22;5027399;28;20103;-49
2023/05/02 05:55:41;;;;;;;2.03;1.83;;;;;;;15.93;61.27;102294.66;5026042;28;20037;-47
2023/05/02 05:58:07;;;;;;;3.08;1.98;;;;;;;15.94;61.36;102285.63;5026410;28;20037;-48
2023/05/02 06:00:37;;;;;;;2.55;1.75;;;;;;;15.94;61.38;102293.69;5026548;28;20025;-49
2023/05/02 06:03:03;;;;;;;3.33;1.67;;;;;;;15.95;61.45;102297.25;5025618;28;20074;-48
2023/05/02 06:05:29;;;;;;;1.95;1.70;;;;;;;15.95;61.49;102300.78;5026178;28;20033;-48
2023/05/02 06:07:55;;;;;;;2.30;1.80;;;;;;;15.96;61.47;102307.91;5025165;28;20103;-48
2023/05/02 06:10:20;;;;;;;2.83;2.00;;;;;;;15.97;61.49;102306.94;5026595;28;20038;-48
2023/05/02 06:12:46;;;;;;;1.95;1.73;;;;;;;15.98;61.63;102311.34;5029605;28;20046;-49
2023/05/02 06:15:11;;;;;;;2.45;1.70;;;;;;;15.98;62.01;102314.03;5029315;28;20053;-47
2023/05/02 06:17:37;;;;;;;2.55;1.80;;;;;;;15.99;61.65;102318.47;5030158;28;20034;-46
2023/05/02 06:20:06;;;;;;;2.65;1.63;;;;;;;16.00;61.99;102322.84;5029752;28;20033;-49
2023/05/02 06:22:32;;;;;;;1.73;1.58;;;;;;;16.01;62.08;102326.41;5030074;28;20042;-47
2023/05/02 06:24:57;;;;;;;1.92;1.75;;;;;;;16.02;62.21;102334.38;5028900;28;20040;-47
2023/05/02 06:27:22;;;;;;;1.73;1.63;;;;;;;16.02;62.03;102334.38;5029326;28;20034;-49
2023/05/02 06:29:51;;;;;;;2.33;1.75;;;;;;;16.03;62.04;102341.47;5030248;28;20026;-48
2023/05/02 06:32:17;;;;;;;1.65;1.55;;;;;;;16.05;61.94;102345.88;5037125;28;20095;-48
2023/05/02 06:34:42;;;;;;;2.00;1.83;;;;;;;16.06;62.30;102355.69;5029316;28;20488;-48
2023/05/02 06:37:08;;;;;;;2.33;1.77;;;;;;;16.05;62.04;102364.69;5028682;28;20080;-47
2023/05/02 06:39:33;;;;;;;3.30;1.52;;;;;;;16.06;61.87;102358.38;5028730;28;20038;-49
2023/05/02 06:41:59;;;;;;;2.20;1.80;;;;;;;16.07;62.08;102371.72;5030140;28;20484;-48
2023/05/02 06:44:24;;;;;;;3.35;1.83;;;;;;;16.06;62.18;102369.97;5029187;28;20429;-48
2023/05/02 06:46:50;;;;;;;1.70;1.60;;;;;;;16.07;62.01;102370.81;5030132;28;20112;-50
2023/05/02 06:49:15;;;;;;;2.28;1.85;;;;;;;16.07;61.83;102378.88;5028733;28;20596;-51
2023/05/02 06:51:41;;;;;;;2.03;1.58;;;;;;;16.07;61.86;102378.88;5029361;28;20427;-51
2023/05/02 06:54:07;;;;;;;1.80;1.70;;;;;;;16.07;62.14;102381.56;5028978;28;20049;-48
2023/05/02 06:56:33;;;;;;;2.45;1.67;;;;;;;16.07;61.94;102385.13;5028963;28;20142;-51
2023/05/02 06:58:58;;;;;;;2.20;2.00;;;;;;;16.07;61.72;102385.13;5029206;28;20054;-46
2023/05/02 07:01:24;;;;;;;1.88;1.58;;;;;;;16.07;61.79;102381.56;5028438;28;20061;-50
2023/05/02 07:03:49;;;;;;;1.40;1.30;;;;;;;16.07;61.70;102393.19;5029404;28;20443;-51
2023/05/02 07:06:15;;;;;;;2.33;1.60;;;;;;;16.08;61.79;102394.06;5035634;28;20072;-49
2023/05/02 07:08:40;;;;;;;1.90;1.60;;;;;;;16.07;61.73;102390.50;5028861;28;20061;-50
2023/05/02 07:11:07;;;;;;;2.10;1.88;;;;;;;16.08;61.70;102411.03;5028869;28;20054;-52
2023/05/02 07:13:32;;;;;;;2.38;1.50;;;;;;;16.08;61.95;102402.97;5028318;28;20041;-48
2023/05/02 07:15:58;;;;;;;1.63;1.50;;;;;;;16.09;62.06;102398.44;5028638;28;20057;-49
2023/05/02 07:18:23;;;;;;;2.35;1.77;;;;;;;16.08;61.56;102418.25;5029852;28;20025;-47
2023/05/02 07:20:48;;;;;;;1.42;1.33;;;;;;;16.08;61.81;102413.72;5028370;28;20038;-49
2023/05/02 07:23:14;;;;;;;3.30;1.60;;;;;;;16.08;61.93;102424.47;5028106;28;20042;-48
2023/05/02 07:25:39;;;;;;;2.33;1.67;;;;;;;16.08;61.68;102426.28;5027930;28;20029;-48
2023/05/02 07:28:05;;;;;;;2.80;1.67;;;;;;;16.08;61.79;102424.47;5028719;28;20057;-50
2023/05/02 07:30:31;;;;;;;2.13;1.67;;;;;;;16.09;61.79;102433.38;5028944;28;20399;-48
2023/05/02 07:32:56;;;;;;;1.60;1.50;;;;;;;16.09;61.82;102433.38;5028368;28;20316;-49
2023/05/02 07:35:22;;;;;;;1.73;1.55;;;;;;;16.09;61.59;102423.53;5029180;28;20112;-51
2023/05/02 07:37:47;;;;;;;1.85;1.70;;;;;;;16.10;61.79;102432.44;5027875;28;20037;-50
2023/05/02 07:40:13;;;;;;;1.85;1.58;;;;;;;16.08;61.23;102432.53;5025772;28;20026;-50
2023/05/02 07:42:40;;;;;;;2.13;1.77;;;;;;;16.09;61.70;102439.66;5028509;28;20029;-48
2023/05/02 07:45:07;;;;;;;2.72;1.40;;;;;;;16.09;61.68;102452.19;5027886;28;20030;-51
2023/05/02 07:47:32;;;;;;;3.47;1.65;;;;;;;16.09;61.57;102446.81;5028287;28;20039;-50
2023/05/02 07:49:57;;;;;;;1.88;1.60;;;;;;;16.08;61.72;102458.53;5027566;28;20033;-50
2023/05/02 07:52:23;;;;;;;2.15;1.55;;;;;;;16.08;61.65;102462.09;5028495;28;20145;-46
2023/05/02 07:54:48;;;;;;;1.85;1.50;;;;;;;16.09;61.84;102465.63;5027223;28;20030;-50
2023/05/02 07:57:14;;;;;;;1.50;1.40;;;;;;;16.08;61.65;102458.53;5027692;28;20034;-48
2023/05/02 07:59:39;;;;;;;2.08;1.52;;;;;;;16.08;61.73;102466.59;5028340;28;20507;-49
2023/05/02 08:02:06;;;;;;;2.00;1.52;;;;;;;16.07;61.47;102467.53;5027237;28;20400;-52
2023/05/02 08:04:31;;;;;;;2.80;1.40;;;;;;;16.07;61.50;102468.44;5027850;28;20079;-51
2023/05/02 08:06:57;;;;;;;2.28;1.67;;;;;;;16.07;61.56;102470.22;5027019;28;20489;-48
2023/05/02 08:09:22;;;;;;;1.77;1.63;;;;;;;16.07;61.69;102470.22;5027996;28;20040;-48
2023/05/02 08:11:47;;;;;;;2.95;1.60;;;;;;;16.08;61.61;102477.34;5028564;28;20083;-47
2023/05/02 08:14:14;;;;;;;3.17;1.30;;;;;;;16.08;61.39;102475.53;5027294;28;20054;-50
2023/05/02 08:16:40;;;;;;;2.97;1.85;;;;;;;16.08;61.68;102470.16;5021694;28;20476;-49
2023/05/02 08:19:05;;;;;;;3.38;1.50;;;;;;;16.08;61.56;102477.34;5027337;28;20025;-48
2023/05/02 08:21:31;;;;;;;3.25;1.50;;;;;;;16.08;61.67;102483.59;5028155;28;20137;-48
2023/05/02 08:23:58;;;;;;;2.38;1.55;;;;;;;16.08;61.14;102482.72;5027776;28;20408;-46
2023/05/02 08:26:23;;;;;;;4.40;2.05;;;;;;;16.08;61.38;102488.94;5025857;28;20127;-46
2023/05/02 08:28:50;;;;;;;2.03;1.50;;;;;;;16.09;61.21;102495.19;5026916;28;20077;-47
2023/05/02 08:31:16;;;;;;;2.50;1.40;;;;;;;16.09;61.44;102500.56;5027422;28;20034;-49
2023/05/02 08:33:42;;;;;;;1.65;1.38;;;;;;;16.08;61.37;102499.69;5028056;28;20097;-47
2023/05/02 08:36:12;;;;;;;1.73;1.60;;;;;;;16.09;61.42;102495.19;5026202;28;20168;-48
2023/05/02 08:38:37;;;;;;;1.75;1.45;;;;;;;16.10;61.65;102502.31;5027628;28;20489;-48
2023/05/02 08:41:09;;;;;;;1.60;1.40;;;;;;;16.10;61.53;102503.16;5026930;28;20025;-49
2023/05/02 08:43:35;;;;;;;2.28;1.50;;;;;;;16.11;61.42;102506.72;5027335;28;20160;-46
2023/05/02 08:46:04;;;;;;;3.38;1.67;;;;;;;16.11;61.35;102512.09;5027467;28;20068;-51
2023/05/02 08:48:31;;;;;;;2.17;1.67;;;;;;;16.11;61.53;102515.66;5026805;28;20107;-49
2023/05/02 08:50:57;;;;;;;1.27;1.17;;;;;;;16.10;61.13;102505.84;5027808;28;20041;-48
2023/05/02 08:53:23;;;;;;;1.50;1.25;;;;;;;16.12;61.17;102511.13;5026352;28;20059;-47
2023/05/02 08:55:49;;;;;;;2.67;1.40;;;;;;;16.12;61.49;102511.13;5027013;28;20037;-48
2023/05/02 08:58:14;;;;;;;1.67;1.02;;;;;;;16.12;61.44;102512.00;5026003;28;20447;-51
2023/05/02 09:00:41;;;;;;;2.78;1.40;;;;;;;16.13;61.27;102512.88;5025517;28;20044;-49
2023/05/02 09:03:15;;;;;;;2.55;1.73;;;;;;;16.14;61.47;102522.66;5027146;28;20033;-48
2023/05/02 09:05:41;;;;;;;1.48;1.38;;;;;;;16.13;61.16;102523.63;5026136;28;20494;-47
2023/05/02 09:08:08;;;;;;;2.40;1.60;;;;;;;16.13;61.42;102531.69;5026917;28;20096;-49
2023/05/02 09:10:36;;;;;;;1.70;1.60;;;;;;;16.14;61.36;102534.25;5025625;28;20108;-48
2023/05/02 09:13:26;;;;;;;1.63;1.40;;;;;;;16.16;61.43;102539.53;5026209;28;20060;-48
2023/05/02 09:16:03;;;;;;;1.98;1.50;;;;;;;16.15;61.20;102533.31;5028017;28;20112;-48
2023/05/02 09:18:33;;;;;;;3.67;1.50;;;;;;;16.14;61.61;102534.25;5026512;28;20032;-46
2023/05/02 09:21:00;;;;;;;2.38;1.60;;;;;;;16.15;61.22;102543.22;5027497;28;20103;-50
2023/05/02 09:23:37;;;;;;;1.83;1.50;;;;;;;16.15;61.33;102548.59;5026024;28;20127;-47
2023/05/02 09:26:13;;;;;;;3.10;1.33;;;;;;;16.15;61.29;102556.66;5026318;28;20040;-48
2023/05/02 09:28:46;;;;;;;2.10;1.33;;;;;;;16.16;61.46;102558.34;5026712;28;20033;-48
2023/05/02 09:31:18;;;;;;;3.08;1.58;;;;;;;16.15;61.32;102553.94;5021251;28;20029;-46
2023/05/02 09:33:44;;;;;;;1.50;1.25;;;;;;;16.15;60.99;102556.66;5025949;28;20468;-49
2023/05/02 09:36:18;;;;;;;1.13;0.90;;;;;;;16.15;61.07;102557.50;5008762;28;20033;-47
2023/05/02 09:38:46;;;;;;;1.77;1.63;;;;;;;16.17;61.07;102557.41;5026982;28;20074;-47
2023/05/02 09:41:12;;;;;;;2.50;1.30;;;;;;;16.17;61.27;102560.97;5021365;28;20468;-47
2023/05/02 09:43:39;;;;;;;1.60;1.25;;;;;;;16.17;60.98;102557.41;5026458;28;20040;-47
2023/05/02 09:46:08;;;;;;;1.42;1.25;;;;;;;16.18;60.94;102564.50;5025102;28;20410;-49
2023/05/02 09:48:52;;;;;;;1.48;1.38;;;;;;;16.21;61.32;102569.69;5026146;28;20478;-51
2023/05/02 09:51:19;;;;;;;1.92;1.52;;;;;;;16.18;60.87;102575.25;5026568;28;20029;-49
2023/05/02 09:53:45;;;;;;;1.70;1.45;;;;;;;16.18;61.14;102577.94;5025917;28;20507;-50
2023/05/02 09:56:10;;;;;;;3.60;1.20;;;;;;;16.19;61.10;102582.38;5026159;28;20041;-46
2023/05/02 09:58:36;;;;;;;1.88;1.40;;;;;;;16.18;60.84;102581.50;5025676;28;20487;-50
2023/05/02 10:01:01;;;;;;;1.35;1.25;;;;;;;16.19;60.99;102577.00;5025987;28;20091;-49
2023/05/02 10:03:28;;;;;;;1.85;1.30;;;;;;;16.20;61.12;102579.59;5026019;28;20084;-47
2023/05/02 10:05:54;;;;;;;2.35;1.40;;;;;;;16.22;61.07;102587.53;5026086;28;20037;-49
2023/05/02 10:08:21;;;;;;;1.73;1.25;;;;;;;16.22;61.06;102579.47;5026180;28;20071;-48
2023/05/02 10:10:56;;;;;;;1.85;1.58;;;;;;;16.21;61.14;102585.81;5025512;28;20045;-51
2023/05/02 10:13:26;;;;;;;1.70;1.27;;;;;;;16.23;61.22;102589.28;5025519;28;20025;-48
2023/05/02 10:16:02;;;;;;;1.58;1.20;;;;;;;16.21;61.21;102585.81;5029789;28;20557;-49
2023/05/02 10:19:06;;;;;;;2.35;1.20;;;;;;;16.24;61.26;102588.34;5030233;28;20038;-49
2023/05/02 10:21:33;;;;;;;1.40;1.27;;;;;;;16.21;60.94;102594.75;5026210;28;20030;-49
2023/05/02 10:24:02;;;;;;;1.33;1.20;;;;;;;16.20;61.25;102586.78;5025709;28;20030;-51
2023/05/02 10:26:28;;;;;;;2.92;1.40;;;;;;;16.21;61.05;102591.19;5020476;28;20230;-51
2023/05/02 10:28:55;;;;;;;1.58;1.30;;;;;;;16.21;60.90;102591.19;5025530;28;20034;-52
2023/05/02 10:31:21;;;;;;;1.75;1.20;;;;;;;16.21;60.97;102593.88;5026920;28;20033;-50
2023/05/02 10:33:50;;;;;;;1.40;1.30;;;;;;;16.20;61.28;102598.41;5027084;28;20101;-49
2023/05/02 10:36:20;;;;;;;1.50;1.17;;;;;;;16.21;61.04;102599.25;5024836;28;20036;-50
2023/05/02 10:38:47;;;;;;;2.88;1.40;;;;;;;16.20;61.10;102590.34;5025838;28;20036;-48
2023/05/02 10:41:25;;;;;;;1.30;1.20;;;;;;;16.21;61.27;102589.38;5024861;28;20041;-49
2023/05/02 10:43:51;;;;;;;2.78;1.52;;;;;;;16.22;60.90;102598.28;5022076;28;20026;-49
2023/05/02 10:46:40;;;;;;;2.15;1.35;;;;;;;16.25;61.34;102591.88;5031623;28;20558;-49
2023/05/02 10:49:10;;;;;;;2.28;1.20;;;;;;;16.24;61.12;102585.66;5026696;28;20069;-48
2023/05/02 10:51:38;;;;;;;1.38;1.27;;;;;;;16.25;61.08;102590.06;5026454;28;20471;-49
2023/05/02 10:54:15;;;;;;;3.17;1.23;;;;;;;16.27;61.25;102590.81;5025476;28;20037;-51
2023/05/02 10:57:03;;;;;;;2.40;1.30;;;;;;;16.28;61.16;102592.56;5025813;28;20029;-49
2023/05/02 10:59:36;;;;;;;2.22;1.23;;;;;;;16.27;60.83;102588.13;5026638;28;20471;-51
2023/05/02 11:02:02;;;;;;;1.73;1.40;;;;;;;16.28;60.63;102600.63;5029430;28;20048;-48
2023/05/02 11:05:03;;;;;;;1.52;1.17;;;;;;;16.30;60.94;102601.41;5028335;28;20044;-50
2023/05/02 11:07:30;;;;;;;2.30;1.38;;;;;;;16.30;60.80;102600.56;5028938;28;20458;-51
2023/05/02 11:10:17;;;;;;;1.50;1.08;;;;;;;16.32;60.73;102598.63;5029354;28;20026;-48
2023/05/02 11:12:49;;;;;;;1.95;1.25;;;;;;;16.32;60.55;102604.00;5024776;28;20132;-47
2023/05/02 11:15:37;;;;;;;1.42;1.30;;;;;;;16.31;60.92;102602.25;5027953;28;20119;-51
2023/05/02 11:18:06;;;;;;;1.90;1.20;;;;;;;16.31;60.92;102616.56;5030419;28;20043;-48
2023/05/02 11:20:35;;;;;;;1.98;1.40;;;;;;;16.31;60.82;102613.88;5029727;28;20100;-49
2023/05/02 11:23:13;;;;;;;2.33;1.38;;;;;;;16.32;60.87;102615.63;5028523;28;20447;-50
2023/05/02 11:25:42;;;;;;;2.08;1.17;;;;;;;16.33;60.59;102613.78;5028855;28;20467;-49
2023/05/02 11:28:40;;;;;;;1.48;1.20;;;;;;;16.34;60.92;102619.06;5028048;28;20063;-49
2023/05/02 11:31:25;;;;;;;2.65;1.45;;;;;;;16.35;60.79;102604.66;5030487;28;20028;-49